sensor_id;sensor_type;location;lat;lon;timestamp;temperature;humidity
11047;DHT22;5576;50.008;10.596;2023-04-06T00:01:07;1.90;99.90
11047;DHT22;5576;50.008;10.596;2023-04-06T00:03:33;1.70;99.90
11047;DHT22;5576;50.008;10.596;2023-04-06T00:05:59;1.60;99.90
11047;DHT22;5576;50.008;10.596;2023-04-06T00:08:26;1.70;99.90
11047;DHT22;5576;50.008;10.596;2023-04-06T00:10:52;1.70;99.90
11047;DHT22;5576;50.008;10.596;2023-04-06T00:13:18;1.50;99.90
11047;DHT22;5576;50.008;10.596;2023-04-06T00:15:44;0.10;99.90
11047;DHT22;5576;50.008;10.596;2023-04-06T00:18:09;1.40;99.90
11047;DHT22;5576;50.008;10.596;2023-04-06T00:20:35;1.50;99.90
11047;DHT22;5576;50.008;10.596;2023-04-06T00:23:01;1.60;99.90
11047;DHT22;5576;50.008;10.596;2023-04-06T00:25:27;1.60;99.90
11047;DHT22;5576;50.008;10.596;2023-04-06T00:27:53;1.50;99.90
11047;DHT22;5576;50.008;10.596;2023-04-06T00:30:19;1.80;99.90
11047;DHT22;5576;50.008;10.596;2023-04-06T00:32:45;1.80;99.90
11047;DHT22;5576;50.008;10.596;2023-04-06T00:35:10;2.10;99.90
11047;DHT22;5576;50.008;10.596;2023-04-06T00:37:36;1.80;99.90
11047;DHT22;5576;50.008;10.596;2023-04-06T00:40:02;4.60;99.90
11047;DHT22;5576;50.008;10.596;2023-04-06T00:42:28;1.80;99.90
11047;DHT22;5576;50.008;10.596;2023-04-06T00:44:56;0.10;99.90
11047;DHT22;5576;50.008;10.596;2023-04-06T00:47:23;1.50;99.90
11047;DHT22;5576;50.008;10.596;2023-04-06T00:49:51;1.70;99.90
11047;DHT22;5576;50.008;10.596;2023-04-06T00:52:17;1.60;99.90
11047;DHT22;5576;50.008;10.596;2023-04-06T00:54:45;1.40;99.90
11047;DHT22;5576;50.008;10.596;2023-04-06T00:57:12;1.40;99.90
11047;DHT22;5576;50.008;10.596;2023-04-06T00:59:39;-0.40;99.90
11047;DHT22;5576;50.008;10.596;2023-04-06T01:02:08;1.50;99.90
11047;DHT22;5576;50.008;10.596;2023-04-06T01:04:41;1.50;99.90
11047;DHT22;5576;50.008;10.596;2023-04-06T01:07:11;3.70;99.90
11047;DHT22;5576;50.008;10.596;2023-04-06T01:09:45;4.60;99.90
11047;DHT22;5576;50.008;10.596;2023-04-06T01:12:18;-0.90;99.90
11047;DHT22;5576;50.008;10.596;2023-04-06T01:14:44;1.50;99.90
11047;DHT22;5576;50.008;10.596;2023-04-06T01:17:10;1.50;99.90
11047;DHT22;5576;50.008;10.596;2023-04-06T01:19:36;1.60;99.90
11047;DHT22;5576;50.008;10.596;2023-04-06T01:22:03;0.00;99.90
11047;DHT22;5576;50.008;10.596;2023-04-06T01:24:30;-2.10;99.90
11047;DHT22;5576;50.008;10.596;2023-04-06T01:27:15;1.50;99.90
11047;DHT22;5576;50.008;10.596;2023-04-06T01:30:00;1.50;99.90
11047;DHT22;5576;50.008;10.596;2023-04-06T01:32:45;-1.80;99.90
11047;DHT22;5576;50.008;10.596;2023-04-06T01:35:15;1.10;99.90
11047;DHT22;5576;50.008;10.596;2023-04-06T01:37:49;1.50;99.90
11047;DHT22;5576;50.008;10.596;2023-04-06T01:40:23;-2.20;99.90
11047;DHT22;5576;50.008;10.596;2023-04-06T01:42:51;1.40;99.90
11047;DHT22;5576;50.008;10.596;2023-04-06T01:45:26;1.30;99.90
11047;DHT22;5576;50.008;10.596;2023-04-06T01:47:56;1.50;99.90
11047;DHT22;5576;50.008;10.596;2023-04-06T01:50:24;5.70;99.90
11047;DHT22;5576;50.008;10.596;2023-04-06T01:52:50;1.30;99.90
11047;DHT22;5576;50.008;10.596;2023-04-06T01:55:16;-1.90;99.90
11047;DHT22;5576;50.008;10.596;2023-04-06T01:58:02;-0.60;99.90
11047;DHT22;5576;50.008;10.596;2023-04-06T02:00:33;1.80;99.90
11047;DHT22;5576;50.008;10.596;2023-04-06T02:03:00;1.80;99.90
11047;DHT22;5576;50.008;10.596;2023-04-06T02:05:30;-0.50;99.90
11047;DHT22;5576;50.008;10.596;2023-04-06T02:07:56;1.70;99.90
11047;DHT22;5576;50.008;10.596;2023-04-06T02:10:31;1.60;99.90
11047;DHT22;5576;50.008;10.596;2023-04-06T02:13:01;1.40;99.90
11047;DHT22;5576;50.008;10.596;2023-04-06T02:15:27;1.20;99.90
11047;DHT22;5576;50.008;10.596;2023-04-06T02:17:53;1.20;99.90
11047;DHT22;5576;50.008;10.596;2023-04-06T02:20:19;1.20;99.90
11047;DHT22;5576;50.008;10.596;2023-04-06T02:22:45;1.30;99.90
11047;DHT22;5576;50.008;10.596;2023-04-06T02:25:10;1.20;99.90
11047;DHT22;5576;50.008;10.596;2023-04-06T02:27:38;-2.80;99.90
11047;DHT22;5576;50.008;10.596;2023-04-06T02:30:05;3.90;99.90
11047;DHT22;5576;50.008;10.596;2023-04-06T02:32:31;1.20;99.90
11047;DHT22;5576;50.008;10.596;2023-04-06T02:34:57;4.20;99.90
11047;DHT22;5576;50.008;10.596;2023-04-06T02:37:23;1.20;99.90
11047;DHT22;5576;50.008;10.596;2023-04-06T02:39:50;1.20;99.90
11047;DHT22;5576;50.008;10.596;2023-04-06T02:42:16;1.20;99.90
11047;DHT22;5576;50.008;10.596;2023-04-06T02:44:43;1.30;99.90
11047;DHT22;5576;50.008;10.596;2023-04-06T02:47:09;5.40;99.90
11047;DHT22;5576;50.008;10.596;2023-04-06T02:49:37;1.40;99.90
11047;DHT22;5576;50.008;10.596;2023-04-06T02:52:03;1.40;99.90
11047;DHT22;5576;50.008;10.596;2023-04-06T02:54:33;1.60;99.90
11047;DHT22;5576;50.008;10.596;2023-04-06T02:57:00;3.70;99.90
11047;DHT22;5576;50.008;10.596;2023-04-06T02:59:36;-2.80;99.90
11047;DHT22;5576;50.008;10.596;2023-04-06T03:02:12;1.40;99.90
11047;DHT22;5576;50.008;10.596;2023-04-06T03:04:38;1.40;99.90
11047;DHT22;5576;50.008;10.596;2023-04-06T03:07:09;1.40;99.90
11047;DHT22;5576;50.008;10.596;2023-04-06T03:09:37;5.10;99.90
11047;DHT22;5576;50.008;10.596;2023-04-06T03:12:04;1.20;99.90
11047;DHT22;5576;50.008;10.596;2023-04-06T03:14:36;1.10;99.90
11047;DHT22;5576;50.008;10.596;2023-04-06T03:17:02;1.00;99.90
11047;DHT22;5576;50.008;10.596;2023-04-06T03:19:28;0.90;99.90
11047;DHT22;5576;50.008;10.596;2023-04-06T03:21:58;0.10;99.90
11047;DHT22;5576;50.008;10.596;2023-04-06T03:24:24;0.80;99.90
11047;DHT22;5576;50.008;10.596;2023-04-06T03:26:50;1.40;99.90
11047;DHT22;5576;50.008;10.596;2023-04-06T03:29:16;0.80;99.90
11047;DHT22;5576;50.008;10.596;2023-04-06T03:31:42;0.80;99.90
11047;DHT22;5576;50.008;10.596;2023-04-06T03:34:23;-0.30;99.90
11047;DHT22;5576;50.008;10.596;2023-04-06T03:36:50;-1.00;99.90
11047;DHT22;5576;50.008;10.596;2023-04-06T03:39:16;0.80;99.90
11047;DHT22;5576;50.008;10.596;2023-04-06T03:41:42;0.80;99.90
11047;DHT22;5576;50.008;10.596;2023-04-06T03:44:29;0.70;99.90
11047;DHT22;5576;50.008;10.596;2023-04-06T03:46:55;0.70;99.90
11047;DHT22;5576;50.008;10.596;2023-04-06T03:49:22;1.00;99.90
11047;DHT22;5576;50.008;10.596;2023-04-06T03:51:50;3.80;99.90
11047;DHT22;5576;50.008;10.596;2023-04-06T03:54:16;5.20;99.90
11047;DHT22;5576;50.008;10.596;2023-04-06T03:56:42;0.80;99.90
11047;DHT22;5576;50.008;10.596;2023-04-06T03:59:07;0.90;99.90
11047;DHT22;5576;50.008;10.596;2023-04-06T04:01:33;0.70;99.90
11047;DHT22;5576;50.008;10.596;2023-04-06T04:04:01;0.90;99.90
11047;DHT22;5576;50.008;10.596;2023-04-06T04:06:27;0.80;99.90
11047;DHT22;5576;50.008;10.596;2023-04-06T04:08:53;0.90;99.90
11047;DHT22;5576;50.008;10.596;2023-04-06T04:11:19;0.80;99.90
11047;DHT22;5576;50.008;10.596;2023-04-06T04:13:50;0.80;99.90
11047;DHT22;5576;50.008;10.596;2023-04-06T04:16:15;0.80;99.90
11047;DHT22;5576;50.008;10.596;2023-04-06T04:18:41;0.80;99.90
11047;DHT22;5576;50.008;10.596;2023-04-06T04:21:09;0.70;99.90
11047;DHT22;5576;50.008;10.596;2023-04-06T04:23:35;-1.10;99.90
11047;DHT22;5576;50.008;10.596;2023-04-06T04:26:00;0.80;99.90
11047;DHT22;5576;50.008;10.596;2023-04-06T04:28:26;0.70;99.90
11047;DHT22;5576;50.008;10.596;2023-04-06T04:30:54;0.70;99.90
11047;DHT22;5576;50.008;10.596;2023-04-06T04:33:22;1.10;99.90
11047;DHT22;5576;50.008;10.596;2023-04-06T04:35:49;1.10;99.90
11047;DHT22;5576;50.008;10.596;2023-04-06T04:38:18;0.80;99.90
11047;DHT22;5576;50.008;10.596;2023-04-06T04:40:50;0.80;99.90
11047;DHT22;5576;50.008;10.596;2023-04-06T04:43:15;0.80;99.90
11047;DHT22;5576;50.008;10.596;2023-04-06T04:45:41;1.00;99.90
11047;DHT22;5576;50.008;10.596;2023-04-06T04:48:16;3.60;99.90
11047;DHT22;5576;50.008;10.596;2023-04-06T04:50:49;-1.50;99.90
11047;DHT22;5576;50.008;10.596;2023-04-06T04:53:16;1.00;99.90
11047;DHT22;5576;50.008;10.596;2023-04-06T04:55:43;1.00;99.90
11047;DHT22;5576;50.008;10.596;2023-04-06T04:58:11;-0.70;99.90
11047;DHT22;5576;50.008;10.596;2023-04-06T05:00:48;4.40;99.90
11047;DHT22;5576;50.008;10.596;2023-04-06T05:03:21;-0.80;99.90
11047;DHT22;5576;50.008;10.596;2023-04-06T05:05:55;-2.60;99.90
11047;DHT22;5576;50.008;10.596;2023-04-06T05:08:23;0.80;99.90
11047;DHT22;5576;50.008;10.596;2023-04-06T05:10:49;0.80;99.90
11047;DHT22;5576;50.008;10.596;2023-04-06T05:13:15;0.80;99.90
11047;DHT22;5576;50.008;10.596;2023-04-06T05:15:43;0.80;99.90
11047;DHT22;5576;50.008;10.596;2023-04-06T05:18:19;0.70;99.90
11047;DHT22;5576;50.008;10.596;2023-04-06T05:20:46;0.70;99.90
11047;DHT22;5576;50.008;10.596;2023-04-06T05:23:12;0.60;99.90
11047;DHT22;5576;50.008;10.596;2023-04-06T05:25:39;0.70;99.90
11047;DHT22;5576;50.008;10.596;2023-04-06T05:28:13;0.50;99.90
11047;DHT22;5576;50.008;10.596;2023-04-06T05:30:42;0.40;99.90
11047;DHT22;5576;50.008;10.596;2023-04-06T05:33:10;0.40;99.90
11047;DHT22;5576;50.008;10.596;2023-04-06T05:35:55;0.50;99.90
11047;DHT22;5576;50.008;10.596;2023-04-06T05:38:22;-0.80;99.90
11047;DHT22;5576;50.008;10.596;2023-04-06T05:40:48;0.70;99.90
11047;DHT22;5576;50.008;10.596;2023-04-06T05:43:18;0.90;99.90
11047;DHT22;5576;50.008;10.596;2023-04-06T05:45:50;1.10;99.90
11047;DHT22;5576;50.008;10.596;2023-04-06T05:48:16;2.50;99.90
11047;DHT22;5576;50.008;10.596;2023-04-06T05:50:42;1.10;99.90
11047;DHT22;5576;50.008;10.596;2023-04-06T05:53:09;1.20;99.90
11047;DHT22;5576;50.008;10.596;2023-04-06T05:55:40;3.70;99.90
11047;DHT22;5576;50.008;10.596;2023-04-06T05:58:15;1.30;99.90
11047;DHT22;5576;50.008;10.596;2023-04-06T06:00:45;0.20;99.90
11047;DHT22;5576;50.008;10.596;2023-04-06T06:03:14;1.60;99.90
11047;DHT22;5576;50.008;10.596;2023-04-06T06:05:45;1.60;99.90
11047;DHT22;5576;50.008;10.596;2023-04-06T06:08:17;1.70;99.90
11047;DHT22;5576;50.008;10.596;2023-04-06T06:10:46;1.80;99.90
11047;DHT22;5576;50.008;10.596;2023-04-06T06:13:12;1.80;99.90
11047;DHT22;5576;50.008;10.596;2023-04-06T06:15:38;1.80;99.90
11047;DHT22;5576;50.008;10.596;2023-04-06T06:18:04;1.90;99.90
11047;DHT22;5576;50.008;10.596;2023-04-06T06:20:30;2.00;99.90
11047;DHT22;5576;50.008;10.596;2023-04-06T06:23:00;2.10;99.90
11047;DHT22;5576;50.008;10.596;2023-04-06T06:25:25;2.10;99.90
11047;DHT22;5576;50.008;10.596;2023-04-06T06:27:51;2.10;99.90
11047;DHT22;5576;50.008;10.596;2023-04-06T06:30:19;2.20;99.90
11047;DHT22;5576;50.008;10.596;2023-04-06T06:32:45;2.50;99.90
11047;DHT22;5576;50.008;10.596;2023-04-06T06:35:10;2.50;99.90
11047;DHT22;5576;50.008;10.596;2023-04-06T06:37:37;2.50;99.90
11047;DHT22;5576;50.008;10.596;2023-04-06T06:40:04;6.60;99.90
11047;DHT22;5576;50.008;10.596;2023-04-06T06:42:32;4.90;99.90
11047;DHT22;5576;50.008;10.596;2023-04-06T06:45:07;2.70;99.90
11047;DHT22;5576;50.008;10.596;2023-04-06T06:47:33;2.80;99.90
11047;DHT22;5576;50.008;10.596;2023-04-06T06:49:59;2.80;99.90
11047;DHT22;5576;50.008;10.596;2023-04-06T06:52:25;2.90;99.90
11047;DHT22;5576;50.008;10.596;2023-04-06T06:54:51;2.90;99.90
11047;DHT22;5576;50.008;10.596;2023-04-06T06:57:18;3.00;99.90
11047;DHT22;5576;50.008;10.596;2023-04-06T06:59:45;3.00;99.90
11047;DHT22;5576;50.008;10.596;2023-04-06T07:02:12;3.10;99.90
11047;DHT22;5576;50.008;10.596;2023-04-06T07:04:37;3.00;99.90
11047;DHT22;5576;50.008;10.596;2023-04-06T07:07:03;3.60;99.90
11047;DHT22;5576;50.008;10.596;2023-04-06T07:09:29;3.10;99.90
11047;DHT22;5576;50.008;10.596;2023-04-06T07:11:55;0.30;99.90
11047;DHT22;5576;50.008;10.596;2023-04-06T07:14:22;3.40;99.90
11047;DHT22;5576;50.008;10.596;2023-04-06T07:16:47;3.50;99.90
11047;DHT22;5576;50.008;10.596;2023-04-06T07:19:15;3.60;99.90
11047;DHT22;5576;50.008;10.596;2023-04-06T07:21:41;3.60;99.90
11047;DHT22;5576;50.008;10.596;2023-04-06T07:24:07;3.60;99.90
11047;DHT22;5576;50.008;10.596;2023-04-06T07:26:33;3.70;99.90
11047;DHT22;5576;50.008;10.596;2023-04-06T07:28:58;3.70;99.90
11047;DHT22;5576;50.008;10.596;2023-04-06T07:31:25;3.80;99.90
11047;DHT22;5576;50.008;10.596;2023-04-06T07:33:51;4.00;99.90
11047;DHT22;5576;50.008;10.596;2023-04-06T07:36:17;4.10;99.90
11047;DHT22;5576;50.008;10.596;2023-04-06T07:38:43;4.10;99.90
11047;DHT22;5576;50.008;10.596;2023-04-06T07:41:11;4.10;99.90
11047;DHT22;5576;50.008;10.596;2023-04-06T07:43:37;4.20;99.90
11047;DHT22;5576;50.008;10.596;2023-04-06T07:46:04;4.30;99.90
11047;DHT22;5576;50.008;10.596;2023-04-06T07:48:30;4.40;99.90
11047;DHT22;5576;50.008;10.596;2023-04-06T07:51:04;0.80;99.90
11047;DHT22;5576;50.008;10.596;2023-04-06T07:53:32;4.80;99.90
11047;DHT22;5576;50.008;10.596;2023-04-06T07:55:58;4.90;99.90
11047;DHT22;5576;50.008;10.596;2023-04-06T07:58:24;5.00;99.90
11047;DHT22;5576;50.008;10.596;2023-04-06T08:00:50;5.10;99.90
11047;DHT22;5576;50.008;10.596;2023-04-06T08:03:16;5.30;99.90
11047;DHT22;5576;50.008;10.596;2023-04-06T08:05:42;5.40;99.90
11047;DHT22;5576;50.008;10.596;2023-04-06T08:08:08;5.40;99.90
11047;DHT22;5576;50.008;10.596;2023-04-06T08:10:34;5.30;99.90
11047;DHT22;5576;50.008;10.596;2023-04-06T08:13:00;5.50;99.90
11047;DHT22;5576;50.008;10.596;2023-04-06T08:15:26;5.60;99.90
11047;DHT22;5576;50.008;10.596;2023-04-06T08:17:51;5.70;99.90
11047;DHT22;5576;50.008;10.596;2023-04-06T08:20:18;5.70;99.90
11047;DHT22;5576;50.008;10.596;2023-04-06T08:22:43;5.90;99.90
11047;DHT22;5576;50.008;10.596;2023-04-06T08:25:09;5.90;99.90
11047;DHT22;5576;50.008;10.596;2023-04-06T08:27:35;6.00;99.90
11047;DHT22;5576;50.008;10.596;2023-04-06T08:30:01;6.00;99.90
11047;DHT22;5576;50.008;10.596;2023-04-06T08:32:27;6.40;99.90
11047;DHT22;5576;50.008;10.596;2023-04-06T08:34:54;6.40;99.90
11047;DHT22;5576;50.008;10.596;2023-04-06T08:37:21;6.50;99.90
11047;DHT22;5576;50.008;10.596;2023-04-06T08:39:46;6.60;99.90
11047;DHT22;5576;50.008;10.596;2023-04-06T08:42:19;7.90;99.90
11047;DHT22;5576;50.008;10.596;2023-04-06T08:44:47;7.00;99.90
11047;DHT22;5576;50.008;10.596;2023-04-06T08:47:13;7.00;99.90
11047;DHT22;5576;50.008;10.596;2023-04-06T08:49:40;7.10;99.90
11047;DHT22;5576;50.008;10.596;2023-04-06T08:52:07;7.20;99.90
11047;DHT22;5576;50.008;10.596;2023-04-06T08:54:34;3.20;99.90
11047;DHT22;5576;50.008;10.596;2023-04-06T08:57:00;7.40;99.90
11047;DHT22;5576;50.008;10.596;2023-04-06T08:59:27;7.60;99.90
11047;DHT22;5576;50.008;10.596;2023-04-06T09:01:54;7.70;99.90
11047;DHT22;5576;50.008;10.596;2023-04-06T09:04:21;7.80;99.90
11047;DHT22;5576;50.008;10.596;2023-04-06T09:06:47;7.90;99.90
11047;DHT22;5576;50.008;10.596;2023-04-06T09:09:12;8.00;99.90
11047;DHT22;5576;50.008;10.596;2023-04-06T09:14:09;8.30;99.90
11047;DHT22;5576;50.008;10.596;2023-04-06T09:16:39;8.40;99.90
11047;DHT22;5576;50.008;10.596;2023-04-06T09:21:32;8.60;99.90
11047;DHT22;5576;50.008;10.596;2023-04-06T09:24:00;8.80;99.90
11047;DHT22;5576;50.008;10.596;2023-04-06T09:26:26;8.90;99.90
11047;DHT22;5576;50.008;10.596;2023-04-06T09:28:54;9.00;99.90
11047;DHT22;5576;50.008;10.596;2023-04-06T09:31:23;9.10;99.90
11047;DHT22;5576;50.008;10.596;2023-04-06T09:33:49;9.30;99.90
11047;DHT22;5576;50.008;10.596;2023-04-06T09:36:15;9.40;99.90
11047;DHT22;5576;50.008;10.596;2023-04-06T09:39:00;9.40;99.90
11047;DHT22;5576;50.008;10.596;2023-04-06T09:41:27;11.40;99.90
11047;DHT22;5576;50.008;10.596;2023-04-06T09:44:10;9.40;99.90
11047;DHT22;5576;50.008;10.596;2023-04-06T09:46:38;11.30;99.90
11047;DHT22;5576;50.008;10.596;2023-04-06T09:49:05;9.60;99.90
11047;DHT22;5576;50.008;10.596;2023-04-06T09:51:40;9.80;99.90
11047;DHT22;5576;50.008;10.596;2023-04-06T09:54:07;10.10;99.90
11047;DHT22;5576;50.008;10.596;2023-04-06T09:56:44;10.20;99.90
11047;DHT22;5576;50.008;10.596;2023-04-06T09:59:19;10.00;99.90
11047;DHT22;5576;50.008;10.596;2023-04-06T10:01:47;10.20;99.90
11047;DHT22;5576;50.008;10.596;2023-04-06T10:04:21;10.20;99.90
11047;DHT22;5576;50.008;10.596;2023-04-06T10:06:49;10.20;99.90
11047;DHT22;5576;50.008;10.596;2023-04-06T10:09:18;10.30;99.90
11047;DHT22;5576;50.008;10.596;2023-04-06T10:11:47;10.40;99.90
11047;DHT22;5576;50.008;10.596;2023-04-06T10:14:15;10.50;99.90
11047;DHT22;5576;50.008;10.596;2023-04-06T10:16:42;10.60;99.90
11047;DHT22;5576;50.008;10.596;2023-04-06T10:19:14;10.80;99.90
11047;DHT22;5576;50.008;10.596;2023-04-06T10:21:45;10.90;99.90
11047;DHT22;5576;50.008;10.596;2023-04-06T10:24:13;11.00;99.90
11047;DHT22;5576;50.008;10.596;2023-04-06T10:26:39;11.10;99.90
11047;DHT22;5576;50.008;10.596;2023-04-06T10:29:05;11.30;99.90
11047;DHT22;5576;50.008;10.596;2023-04-06T10:31:32;13.60;99.90
11047;DHT22;5576;50.008;10.596;2023-04-06T10:34:00;9.90;99.90
11047;DHT22;5576;50.008;10.596;2023-04-06T10:36:28;11.30;99.90
11047;DHT22;5576;50.008;10.596;2023-04-06T10:38:59;11.40;99.90
11047;DHT22;5576;50.008;10.596;2023-04-06T10:41:42;11.30;99.90
11047;DHT22;5576;50.008;10.596;2023-04-06T10:44:24;11.40;99.90
11047;DHT22;5576;50.008;10.596;2023-04-06T10:46:59;11.50;99.90
11047;DHT22;5576;50.008;10.596;2023-04-06T10:49:26;11.70;99.90
11047;DHT22;5576;50.008;10.596;2023-04-06T10:51:54;11.90;99.90
11047;DHT22;5576;50.008;10.596;2023-04-06T10:54:21;12.00;99.90
11047;DHT22;5576;50.008;10.596;2023-04-06T10:56:48;12.30;99.90
11047;DHT22;5576;50.008;10.596;2023-04-06T10:59:19;12.10;99.90
11047;DHT22;5576;50.008;10.596;2023-04-06T11:01:45;12.20;99.90
11047;DHT22;5576;50.008;10.596;2023-04-06T11:04:17;12.10;99.90
11047;DHT22;5576;50.008;10.596;2023-04-06T11:06:47;12.30;99.90
11047;DHT22;5576;50.008;10.596;2023-04-06T11:09:23;12.40;99.90
11047;DHT22;5576;50.008;10.596;2023-04-06T11:11:49;12.40;99.90
11047;DHT22;5576;50.008;10.596;2023-04-06T11:14:15;12.20;99.90
11047;DHT22;5576;50.008;10.596;2023-04-06T11:16:40;12.30;99.90
11047;DHT22;5576;50.008;10.596;2023-04-06T11:19:07;10.40;99.90
11047;DHT22;5576;50.008;10.596;2023-04-06T11:21:42;9.70;99.90
11047;DHT22;5576;50.008;10.596;2023-04-06T11:24:14;12.80;99.90
11047;DHT22;5576;50.008;10.596;2023-04-06T11:29:10;12.80;99.20
11047;DHT22;5576;50.008;10.596;2023-04-06T11:31:40;12.90;99.60
11047;DHT22;5576;50.008;10.596;2023-04-06T11:34:10;13.00;99.30
11047;DHT22;5576;50.008;10.596;2023-04-06T11:36:36;13.10;98.40
11047;DHT22;5576;50.008;10.596;2023-04-06T11:39:05;13.00;98.70
11047;DHT22;5576;50.008;10.596;2023-04-06T11:41:32;13.00;98.40
11047;DHT22;5576;50.008;10.596;2023-04-06T11:44:01;13.20;98.20
11047;DHT22;5576;50.008;10.596;2023-04-06T11:46:27;13.30;98.60
11047;DHT22;5576;50.008;10.596;2023-04-06T11:48:58;13.30;97.60
11047;DHT22;5576;50.008;10.596;2023-04-06T11:51:24;12.80;98.10
11047;DHT22;5576;50.008;10.596;2023-04-06T11:53:52;12.40;98.10
11047;DHT22;5576;50.008;10.596;2023-04-06T11:56:27;12.40;99.90
11047;DHT22;5576;50.008;10.596;2023-04-06T11:58:56;12.60;99.90
11047;DHT22;5576;50.008;10.596;2023-04-06T12:01:23;12.60;99.20
11047;DHT22;5576;50.008;10.596;2023-04-06T12:03:49;12.90;98.90
11047;DHT22;5576;50.008;10.596;2023-04-06T12:06:16;13.00;99.40
11047;DHT22;5576;50.008;10.596;2023-04-06T12:08:42;13.20;98.20
11047;DHT22;5576;50.008;10.596;2023-04-06T12:11:08;13.30;99.60
11047;DHT22;5576;50.008;10.596;2023-04-06T12:13:34;13.20;97.90
11047;DHT22;5576;50.008;10.596;2023-04-06T12:16:00;13.30;98.30
11047;DHT22;5576;50.008;10.596;2023-04-06T12:18:25;13.40;99.20
11047;DHT22;5576;50.008;10.596;2023-04-06T12:20:51;13.70;99.90
11047;DHT22;5576;50.008;10.596;2023-04-06T12:23:19;13.90;98.80
11047;DHT22;5576;50.008;10.596;2023-04-06T12:25:44;13.90;97.70
11047;DHT22;5576;50.008;10.596;2023-04-06T12:28:10;13.80;98.20
11047;DHT22;5576;50.008;10.596;2023-04-06T12:30:36;13.90;98.70
11047;DHT22;5576;50.008;10.596;2023-04-06T12:33:02;14.20;97.50
11047;DHT22;5576;50.008;10.596;2023-04-06T12:35:28;14.20;97.90
11047;DHT22;5576;50.008;10.596;2023-04-06T12:37:53;14.30;96.30
11047;DHT22;5576;50.008;10.596;2023-04-06T12:40:20;14.30;96.30
11047;DHT22;5576;50.008;10.596;2023-04-06T12:42:46;14.30;97.80
11047;DHT22;5576;50.008;10.596;2023-04-06T12:45:12;14.30;97.80
11047;DHT22;5576;50.008;10.596;2023-04-06T12:47:38;14.40;96.80
11047;DHT22;5576;50.008;10.596;2023-04-06T12:50:05;14.40;97.70
11047;DHT22;5576;50.008;10.596;2023-04-06T12:52:31;14.40;95.70
11047;DHT22;5576;50.008;10.596;2023-04-06T12:55:01;14.40;95.40
11047;DHT22;5576;50.008;10.596;2023-04-06T12:57:27;14.20;95.00
11047;DHT22;5576;50.008;10.596;2023-04-06T12:59:52;14.20;95.00
11047;DHT22;5576;50.008;10.596;2023-04-06T13:02:18;14.20;94.30
11047;DHT22;5576;50.008;10.596;2023-04-06T13:04:45;14.20;95.50
11047;DHT22;5576;50.008;10.596;2023-04-06T13:07:11;14.40;95.50
11047;DHT22;5576;50.008;10.596;2023-04-06T13:09:37;14.50;95.90
11047;DHT22;5576;50.008;10.596;2023-04-06T13:12:03;14.50;94.40
11047;DHT22;5576;50.008;10.596;2023-04-06T13:14:29;14.40;94.50
11047;DHT22;5576;50.008;10.596;2023-04-06T13:16:54;13.30;93.50
11047;DHT22;5576;50.008;10.596;2023-04-06T13:19:20;14.50;94.50
11047;DHT22;5576;50.008;10.596;2023-04-06T13:21:47;14.30;94.40
11047;DHT22;5576;50.008;10.596;2023-04-06T13:24:12;13.40;93.10
11047;DHT22;5576;50.008;10.596;2023-04-06T13:26:38;14.60;93.80
11047;DHT22;5576;50.008;10.596;2023-04-06T13:29:04;18.10;94.90
11047;DHT22;5576;50.008;10.596;2023-04-06T13:31:29;14.70;93.30
11047;DHT22;5576;50.008;10.596;2023-04-06T13:33:55;14.70;92.90
11047;DHT22;5576;50.008;10.596;2023-04-06T13:36:22;14.60;93.30
11047;DHT22;5576;50.008;10.596;2023-04-06T13:38:47;14.70;94.90
11047;DHT22;5576;50.008;10.596;2023-04-06T13:41:22;14.70;94.60
11047;DHT22;5576;50.008;10.596;2023-04-06T13:43:48;14.80;93.70
11047;DHT22;5576;50.008;10.596;2023-04-06T13:46:13;12.60;92.60
11047;DHT22;5576;50.008;10.596;2023-04-06T13:48:39;14.90;94.30
11047;DHT22;5576;50.008;10.596;2023-04-06T13:51:13;15.00;95.00
11047;DHT22;5576;50.008;10.596;2023-04-06T13:53:40;15.00;92.10
11047;DHT22;5576;50.008;10.596;2023-04-06T13:56:06;15.00;92.10
11047;DHT22;5576;50.008;10.596;2023-04-06T13:58:32;14.90;91.80
11047;DHT22;5576;50.008;10.596;2023-04-06T14:01:07;14.90;92.00
11047;DHT22;5576;50.008;10.596;2023-04-06T14:03:33;14.90;93.50
11047;DHT22;5576;50.008;10.596;2023-04-06T14:05:59;14.90;93.70
11047;DHT22;5576;50.008;10.596;2023-04-06T14:08:25;14.70;94.00
11047;DHT22;5576;50.008;10.596;2023-04-06T14:10:50;14.80;93.40
11047;DHT22;5576;50.008;10.596;2023-04-06T14:13:16;14.10;91.40
11047;DHT22;5576;50.008;10.596;2023-04-06T14:15:42;11.90;91.10
11047;DHT22;5576;50.008;10.596;2023-04-06T14:18:08;14.70;93.00
11047;DHT22;5576;50.008;10.596;2023-04-06T14:20:34;14.80;92.00
11047;DHT22;5576;50.008;10.596;2023-04-06T14:23:01;18.00;94.00
11047;DHT22;5576;50.008;10.596;2023-04-06T14:25:27;14.70;93.10
11047;DHT22;5576;50.008;10.596;2023-04-06T14:27:53;14.60;92.30
11047;DHT22;5576;50.008;10.596;2023-04-06T14:30:19;14.60;93.10
11047;DHT22;5576;50.008;10.596;2023-04-06T14:32:45;14.80;91.10
11047;DHT22;5576;50.008;10.596;2023-04-06T14:35:10;14.90;91.70
11047;DHT22;5576;50.008;10.596;2023-04-06T14:37:36;14.90;92.00
11047;DHT22;5576;50.008;10.596;2023-04-06T14:40:03;15.00;92.00
11047;DHT22;5576;50.008;10.596;2023-04-06T14:42:29;15.00;91.40
11047;DHT22;5576;50.008;10.596;2023-04-06T14:44:55;15.10;91.10
11047;DHT22;5576;50.008;10.596;2023-04-06T14:47:21;14.90;90.20
11047;DHT22;5576;50.008;10.596;2023-04-06T14:49:50;14.90;90.10
11047;DHT22;5576;50.008;10.596;2023-04-06T14:52:15;14.80;90.10
11047;DHT22;5576;50.008;10.596;2023-04-06T14:54:41;14.80;90.50
11047;DHT22;5576;50.008;10.596;2023-04-06T14:57:07;14.70;90.30
11047;DHT22;5576;50.008;10.596;2023-04-06T14:59:33;14.70;90.60
11047;DHT22;5576;50.008;10.596;2023-04-06T15:04:26;15.10;89.50
11047;DHT22;5576;50.008;10.596;2023-04-06T15:06:51;15.10;90.30
11047;DHT22;5576;50.008;10.596;2023-04-06T15:09:17;15.20;89.80
11047;DHT22;5576;50.008;10.596;2023-04-06T15:11:43;15.30;90.60
11047;DHT22;5576;50.008;10.596;2023-04-06T15:14:09;15.20;87.50
11047;DHT22;5576;50.008;10.596;2023-04-06T15:16:34;15.10;90.80
11047;DHT22;5576;50.008;10.596;2023-04-06T15:19:00;15.20;91.80
11047;DHT22;5576;50.008;10.596;2023-04-06T15:21:26;15.30;88.40
11047;DHT22;5576;50.008;10.596;2023-04-06T15:23:53;17.60;88.00
11047;DHT22;5576;50.008;10.596;2023-04-06T15:26:20;15.50;88.30
11047;DHT22;5576;50.008;10.596;2023-04-06T15:28:46;15.50;91.70
11047;DHT22;5576;50.008;10.596;2023-04-06T15:31:14;15.40;89.90
11047;DHT22;5576;50.008;10.596;2023-04-06T15:33:40;15.50;90.40
11047;DHT22;5576;50.008;10.596;2023-04-06T15:36:20;15.60;89.00
11047;DHT22;5576;50.008;10.596;2023-04-06T15:38:47;15.60;89.30
11047;DHT22;5576;50.008;10.596;2023-04-06T15:41:13;19.20;91.00
11047;DHT22;5576;50.008;10.596;2023-04-06T15:43:40;15.50;89.00
11047;DHT22;5576;50.008;10.596;2023-04-06T15:46:05;15.40;88.50
11047;DHT22;5576;50.008;10.596;2023-04-06T15:48:31;15.30;88.50
11047;DHT22;5576;50.008;10.596;2023-04-06T15:50:57;12.60;89.60
11047;DHT22;5576;50.008;10.596;2023-04-06T15:53:23;15.60;89.70